Time;durP1;ratioP1;P1;durP2;ratioP2;P2;SDS_P1;SDS_P2;PMS_P1;PMS_P2;Temp;Humidity;BMP_temperature;BMP_pressure;BME280_temperature;BME280_humidity;BME280_pressure;Samples;Min_cycle;Max_cycle;Signal;HPM_P1;HPM_P2
2022/07/11 00:00:17;;;;;;;2.85;2.30;;;;;;;20.17;nan;-24378.19;4976876;28;20177;-56
2022/07/11 00:02:42;;;;;;;3.70;2.50;;;;;;;19.83;nan;-24368.72;4976744;28;20182;-55
2022/07/11 00:05:09;;;;;;;2.53;2.13;;;;;;;19.89;nan;-24370.41;4979550;28;20180;-56
2022/07/11 00:07:35;;;;;;;2.90;2.25;;;;;;;20.12;nan;-24376.78;4974811;28;20260;-55
2022/07/11 00:10:04;;;;;;;2.88;2.20;;;;;;;19.95;nan;-24372.06;4977783;28;20182;-56
2022/07/11 00:12:30;;;;;;;2.75;2.20;;;;;;;20.12;nan;-24376.78;4977912;28;20644;-56
2022/07/11 00:14:56;;;;;;;2.53;2.17;;;;;;;20.22;nan;-24379.44;4972945;28;20197;-55
2022/07/11 00:17:23;;;;;;;2.85;2.15;;;;;;;20.18;nan;-24378.47;4978774;28;20196;-55
2022/07/11 00:19:49;;;;;;;4.60;2.38;;;;;;;20.20;nan;-24378.88;4977113;28;20201;-56
2022/07/11 00:22:14;;;;;;;2.67;2.10;;;;;;;19.85;nan;-24369.28;4979248;28;20184;-56
2022/07/11 00:24:40;;;;;;;2.72;2.13;;;;;;;20.12;nan;-24376.66;4976448;28;20289;-56
2022/07/11 00:27:05;;;;;;;2.13;1.88;;;;;;;19.81;nan;-24368.31;4978393;28;20177;-55
2022/07/11 00:29:32;;;;;;;2.47;2.10;;;;;;;20.11;nan;-24376.50;4977505;28;20258;-55
2022/07/11 00:31:58;;;;;;;3.17;2.10;;;;;;;20.20;nan;-24378.88;4977656;28;20664;-56
2022/07/11 00:34:24;;;;;;;2.88;2.20;;;;;;;20.04;nan;-24374.44;4978368;28;20213;-56
2022/07/11 00:36:50;;;;;;;2.75;2.17;;;;;;;19.93;nan;-24371.38;4991030;28;20233;-56
2022/07/11 00:39:15;;;;;;;2.60;2.08;;;;;;;19.85;nan;-24369.28;4978744;28;20610;-56
2022/07/11 00:41:41;;;;;;;2.05;1.83;;;;;;;20.11;nan;-24376.50;4977407;28;20208;-56
2022/07/11 00:44:08;;;;;;;2.90;2.30;;;;;;;20.13;nan;-24376.94;4979578;28;20208;-56
2022/07/11 00:46:33;;;;;;;2.65;2.00;;;;;;;20.41;nan;-24384.72;4979070;28;20224;-56
2022/07/11 00:48:59;;;;;;;2.72;2.10;;;;;;;20.22;nan;-24379.44;4980056;28;20568;-56
2022/07/11 00:51:26;;;;;;;2.55;2.00;;;;;;;20.28;nan;-24381.09;4981319;28;20251;-56
2022/07/11 00:53:54;;;;;;;2.13;1.70;;;;;;;20.06;nan;-24375.00;4979838;28;20715;-55
2022/07/11 00:56:21;;;;;;;2.10;1.90;;;;;;;20.39;nan;-24384.16;4981386;28;20554;-56
2022/07/11 00:58:50;;;;;;;2.70;1.98;;;;;;;19.58;nan;-24361.78;4979507;28;20262;-56
2022/07/11 01:01:16;;;;;;;2.33;1.90;;;;;;;20.28;nan;-24381.09;4981658;28;20272;-55
2022/07/11 01:03:43;;;;;;;3.33;2.50;;;;;;;20.14;nan;-24377.34;4979151;28;20193;-56
2022/07/11 01:06:09;;;;;;;3.05;2.20;;;;;;;19.98;nan;-24372.91;4978609;28;20558;-56
2022/07/11 01:08:35;;;;;;;4.00;2.00;;;;;;;20.03;nan;-24374.28;4979446;28;20193;-55
2022/07/11 01:11:09;;;;;;;3.75;2.13;;;;;;;19.79;nan;-24367.75;4982819;28;20189;-56
2022/07/11 01:13:34;;;;;;;2.58;2.10;;;;;;;18.07;nan;-24320.44;4979582;28;20189;-56
2022/07/11 01:16:26;;;;;;;2.42;1.90;;;;;;;19.98;nan;-24372.91;4979340;28;20323;-56
2022/07/11 01:18:54;;;;;;;2.72;2.08;;;;;;;19.88;nan;-24370.13;4977842;28;20279;-56
2022/07/11 01:21:28;;;;;;;2.72;1.90;;;;;;;19.83;nan;-24368.72;4981404;28;20177;-56
2022/07/11 01:23:56;;;;;;;2.28;1.95;;;;;;;19.57;nan;-24361.66;4979789;28;20189;-56
2022/07/11 01:26:23;;;;;;;3.22;2.22;;;;;;;19.72;nan;-24365.81;4983375;28;20184;-56
2022/07/11 01:28:49;;;;;;;2.40;2.05;;;;;;;19.10;nan;-24348.56;4977394;28;20185;-56
2022/07/11 01:31:15;;;;;;;3.80;2.35;;;;;;;19.42;nan;-24357.59;4983524;28;20184;-56
2022/07/11 01:33:41;;;;;;;2.78;2.10;;;;;;;19.27;nan;-24353.28;4979286;28;20192;-56
2022/07/11 01:36:06;;;;;;;2.25;2.05;;;;;;;19.27;nan;-24353.44;4978488;28;20221;-56
2022/07/11 01:38:32;;;;;;;2.40;2.00;;;;;;;19.42;nan;-24357.59;4979611;28;20260;-56
2022/07/11 01:41:12;;;;;;;2.60;2.30;;;;;;;19.38;nan;-24356.50;4979240;28;20582;-56
2022/07/11 01:43:38;;;;;;;3.33;2.22;;;;;;;19.11;nan;-24348.97;4978618;28;20184;-56
2022/07/11 01:46:04;;;;;;;2.10;1.88;;;;;;;19.01;nan;-24346.19;4978487;28;20184;-55
2022/07/11 01:48:29;;;;;;;3.45;2.15;;;;;;;19.24;nan;-24352.59;4979703;28;20557;-56
2022/07/11 01:50:55;;;;;;;4.15;2.20;;;;;;;19.17;nan;-24350.66;4977296;28;20280;-55
2022/07/11 01:53:20;;;;;;;3.25;1.85;;;;;;;19.10;nan;-24348.69;4980744;28;20185;-56
2022/07/11 01:55:46;;;;;;;2.40;2.10;;;;;;;18.84;nan;-24341.47;5010557;28;20192;-56
2022/07/11 01:58:12;;;;;;;2.65;2.10;;;;;;;19.15;nan;-24350.09;4978770;28;20212;-56
2022/07/11 02:00:37;;;;;;;3.20;1.92;;;;;;;19.06;nan;-24347.44;4976837;28;20236;-55
2022/07/11 02:03:03;;;;;;;2.88;2.30;;;;;;;18.85;nan;-24341.75;4994663;28;20185;-56
2022/07/11 02:05:29;;;;;;;2.17;1.95;;;;;;;18.95;nan;-24344.53;4979492;28;20652;-56
2022/07/11 02:08:14;;;;;;;2.33;2.00;;;;;;;19.39;nan;-24356.78;4978923;28;20260;-55
2022/07/11 02:10:44;;;;;;;2.53;1.90;;;;;;;19.17;nan;-24350.50;4975210;28;20628;-56
2022/07/11 02:13:11;;;;;;;3.13;1.95;;;;;;;19.29;nan;-24353.84;4982816;28;20177;-55
2022/07/11 02:15:38;;;;;;;2.63;2.00;;;;;;;19.12;nan;-24349.25;4978525;28;20182;-56
2022/07/11 02:18:03;;;;;;;2.53;2.00;;;;;;;19.17;nan;-24350.66;4977635;28;20207;-56
2022/07/11 02:20:29;;;;;;;2.55;2.22;;;;;;;19.17;nan;-24350.50;4977258;28;20181;-55
2022/07/11 02:22:56;;;;;;;2.55;1.90;;;;;;;19.45;nan;-24358.16;4978773;28;20185;-56
2022/07/11 02:25:22;;;;;;;2.50;1.83;;;;;;;16.72;nan;-24283.16;4982273;28;20620;-56
2022/07/11 02:27:48;;;;;;;2.13;1.80;;;;;;;19.40;nan;-24357.06;4978424;28;20189;-56
2022/07/11 02:30:14;;;;;;;2.20;1.92;;;;;;;19.48;nan;-24359.00;4980475;28;20193;-56
2022/07/11 02:32:39;;;;;;;1.88;1.77;;;;;;;19.47;nan;-24358.84;4978023;28;20193;-55
2022/07/11 02:35:05;;;;;;;3.47;2.00;;;;;;;19.17;nan;-24350.50;4997250;28;20663;-56
2022/07/11 02:37:31;;;;;;;2.15;1.90;;;;;;;19.41;nan;-24357.19;4981013;28;20240;-56
2022/07/11 02:39:57;;;;;;;3.65;2.20;;;;;;;19.46;nan;-24358.44;4977964;28;20579;-57
2022/07/11 02:42:22;;;;;;;2.28;1.98;;;;;;;19.07;nan;-24347.88;4979458;28;20192;-55
2022/07/11 02:44:47;;;;;;;2.88;1.70;;;;;;;19.26;nan;-24353.16;4978068;28;20668;-57
2022/07/11 02:47:16;;;;;;;2.75;2.20;;;;;;;18.94;nan;-24344.25;4979620;28;20181;-55
2022/07/11 02:49:42;;;;;;;2.60;1.90;;;;;;;19.03;nan;-24346.63;4978303;28;20189;-55
2022/07/11 02:52:08;;;;;;;2.38;2.00;;;;;;;19.33;nan;-24354.97;4982344;28;20239;-56
2022/07/11 02:54:33;;;;;;;2.53;2.15;;;;;;;17.48;nan;-24304.09;4978231;28;20193;-56
2022/07/11 02:56:59;;;;;;;3.15;2.17;;;;;;;17.04;nan;-24291.97;4978072;28;20192;-56
2022/07/11 02:59:24;;;;;;;2.40;2.03;;;;;;;19.49;nan;-24359.28;4977936;28;20671;-56
2022/07/11 03:01:50;;;;;;;2.40;1.92;;;;;;;19.58;nan;-24361.78;4973583;28;20695;-56
2022/07/11 03:04:16;;;;;;;2.17;1.85;;;;;;;19.38;nan;-24356.50;4977603;28;20173;-56
2022/07/11 03:06:41;;;;;;;3.22;2.10;;;;;;;19.44;nan;-24358.03;4977620;28;20600;-57
2022/07/11 03:09:08;;;;;;;2.28;1.85;;;;;;;19.54;nan;-24360.66;4979845;28;20187;-56
2022/07/11 03:11:33;;;;;;;3.35;2.17;;;;;;;19.68;nan;-24364.69;4977870;28;20193;-56
2022/07/11 03:14:00;;;;;;;2.15;1.95;;;;;;;19.98;nan;-24372.75;4978007;28;20184;-57
2022/07/11 03:16:30;;;;;;;3.47;2.15;;;;;;;20.44;nan;-24385.53;4978909;28;20184;-56
2022/07/11 03:18:56;;;;;;;2.30;2.00;;;;;;;21.14;nan;-24404.84;4977623;28;20201;-56
2022/07/11 03:21:21;;;;;;;2.47;2.00;;;;;;;21.13;nan;-24404.56;4978613;28;20246;-57
2022/07/11 03:23:47;;;;;;;2.78;2.10;;;;;;;21.82;nan;-24423.25;4977222;28;20181;-58
2022/07/11 03:26:12;;;;;;;2.65;2.05;;;;;;;22.25;nan;-24435.16;4982594;28;20276;-56
2022/07/11 03:28:38;;;;;;;2.40;1.90;;;;;;;22.09;nan;-24430.59;4975641;28;20219;-57
2022/07/11 03:31:04;;;;;;;2.58;2.00;;;;;;;22.31;nan;-24436.84;4977247;28;20220;-57
2022/07/11 03:33:29;;;;;;;2.63;1.92;;;;;;;22.54;nan;-24443.06;4975536;28;20189;-57
2022/07/11 03:35:55;;;;;;;4.10;2.10;;;;;;;22.54;nan;-24443.06;4975157;28;20224;-57
2022/07/11 03:38:21;;;;;;;2.00;1.75;;;;;;;22.95;nan;-24454.13;4975854;28;20216;-57
2022/07/11 03:40:47;;;;;;;2.22;1.80;;;;;;;23.09;nan;-24458.13;4975004;28;20176;-58
2022/07/11 03:43:14;;;;;;;2.65;1.95;;;;;;;23.24;nan;-24462.28;4976816;28;20231;-57
2022/07/11 03:45:40;;;;;;;2.45;1.80;;;;;;;23.26;nan;-24462.69;4974942;28;20188;-56
2022/07/11 03:48:07;;;;;;;2.65;1.90;;;;;;;24.08;nan;-24485.06;4974512;28;20176;-56
2022/07/11 03:50:32;;;;;;;3.05;1.90;;;;;;;24.03;nan;-24483.66;4974463;28;20189;-56
2022/07/11 03:52:58;;;;;;;2.13;1.80;;;;;;;24.53;nan;-24497.47;4974775;28;20819;-56
2022/07/11 03:55:24;;;;;;;1.77;1.60;;;;;;;24.42;nan;-24494.28;4977011;28;20751;-56
2022/07/11 03:57:49;;;;;;;2.75;2.17;;;;;;;25.10;nan;-24512.88;4971673;28;20181;-56
2022/07/11 04:00:15;;;;;;;2.25;1.85;;;;;;;25.11;nan;-24513.03;4976441;28;20177;-56
2022/07/11 04:02:43;;;;;;;2.58;1.73;;;;;;;25.08;nan;-24512.47;4975033;28;21203;-56
2022/07/11 04:05:09;;;;;;;3.33;2.10;;;;;;;25.47;nan;-24523.06;4975393;28;20269;-56
2022/07/11 04:07:34;;;;;;;2.60;1.63;;;;;;;24.94;nan;-24508.63;4975071;28;20255;-57
2022/07/11 04:10:00;;;;;;;1.98;1.70;;;;;;;25.64;nan;-24527.47;4975974;28;20182;-57
2022/07/11 04:12:25;;;;;;;2.00;1.75;;;;;;;26.16;nan;-24541.78;4976351;28;20181;-57
2022/07/11 04:14:51;;;;;;;2.92;1.60;;;;;;;25.75;nan;-24530.50;4974211;28;20619;-57
2022/07/11 04:17:16;;;;;;;2.28;1.88;;;;;;;23.65;nan;-24473.47;4975494;28;20180;-57
2022/07/11 04:19:45;;;;;;;2.75;1.80;;;;;;;25.78;nan;-24531.31;4991693;28;20239;-57
2022/07/11 04:22:11;;;;;;;3.65;1.88;;;;;;;26.27;nan;-24544.78;4979659;28;20178;-58
2022/07/11 04:24:36;;;;;;;2.10;1.65;;;;;;;26.58;nan;-24553.03;4978810;28;20184;-55
2022/07/11 04:27:02;;;;;;;2.20;1.80;;;;;;;26.04;nan;-24538.47;4978856;28;20608;-56
2022/07/11 04:29:27;;;;;;;1.85;1.50;;;;;;;26.36;nan;-24547.28;4977296;28;20615;-56
2022/07/11 04:31:53;;;;;;;2.10;1.65;;;;;;;26.72;nan;-24557.03;4980645;28;20177;-57
2022/07/11 04:34:18;;;;;;;2.40;1.80;;;;;;;26.76;nan;-24557.97;4982684;28;20189;-56
2022/07/11 04:36:44;;;;;;;2.33;1.48;;;;;;;26.32;nan;-24546.03;4977159;28;20291;-56
2022/07/11 04:39:10;;;;;;;2.25;1.80;;;;;;;26.35;nan;-24547.00;4979131;28;20209;-56
2022/07/11 04:41:36;;;;;;;1.95;1.50;;;;;;;25.73;nan;-24529.94;4979866;28;20193;-56
2022/07/11 04:44:01;;;;;;;2.40;1.90;;;;;;;25.72;nan;-24529.69;4980922;28;20936;-56
2022/07/11 04:46:27;;;;;;;2.28;1.70;;;;;;;25.93;nan;-24535.59;4978696;28;20527;-56
2022/07/11 04:48:53;;;;;;;1.67;1.58;;;;;;;25.61;nan;-24526.66;4979078;28;20185;-55
2022/07/11 04:51:18;;;;;;;2.35;1.55;;;;;;;24.76;nan;-24503.53;4977181;28;20178;-56
2022/07/11 04:53:44;;;;;;;1.40;1.30;;;;;;;24.62;nan;-24499.81;4978255;28;20185;-56
2022/07/11 04:56:09;;;;;;;1.95;1.52;;;;;;;24.82;nan;-24505.19;4982284;28;20173;-57
2022/07/11 04:58:35;;;;;;;3.13;1.77;;;;;;;25.29;nan;-24518.13;4979891;28;20205;-57
2022/07/11 05:01:02;;;;;;;1.73;1.60;;;;;;;25.33;nan;-24519.09;4981850;28;20251;-56
2022/07/11 05:03:29;;;;;;;1.35;1.25;;;;;;;25.11;nan;-24513.03;4979820;28;20181;-57
2022/07/11 05:05:55;;;;;;;1.50;1.40;;;;;;;24.92;nan;-24508.06;4979591;28;20622;-57
2022/07/11 05:08:21;;;;;;;1.52;1.42;;;;;;;24.32;nan;-24491.53;4981670;28;20213;-56
2022/07/11 05:10:47;;;;;;;2.10;1.75;;;;;;;24.45;nan;-24495.25;4979336;28;20563;-57
2022/07/11 05:13:13;;;;;;;1.98;1.50;;;;;;;24.39;nan;-24493.47;4980984;28;20212;-56
2022/07/11 05:15:39;;;;;;;4.35;1.77;;;;;;;24.23;nan;-24489.06;4987894;28;20228;-57
2022/07/11 05:18:05;;;;;;;1.65;1.52;;;;;;;24.32;nan;-24491.69;4976713;28;20197;-61
2022/07/11 05:20:31;;;;;;;2.17;1.90;;;;;;;24.11;nan;-24486.00;4978135;28;20202;-57
2022/07/11 05:22:57;;;;;;;1.63;1.52;;;;;;;24.11;nan;-24485.88;4978465;28;20185;-56
2022/07/11 05:25:22;;;;;;;2.20;1.75;;;;;;;21.02;nan;-24401.50;4981257;28;20264;-57
2022/07/11 05:27:48;;;;;;;2.03;1.70;;;;;;;23.97;nan;-24482.00;4976378;28;20185;-56
2022/07/11 05:30:14;;;;;;;2.70;2.15;;;;;;;23.92;nan;-24480.78;4979643;28;20185;-59
2022/07/11 05:32:39;;;;;;;1.60;1.50;;;;;;;23.66;nan;-24473.75;4976738;28;20185;-57
2022/07/11 05:35:05;;;;;;;1.83;1.60;;;;;;;23.93;nan;-24480.91;4980825;28;20180;-57
2022/07/11 05:37:31;;;;;;;2.10;1.63;;;;;;;24.45;nan;-24495.13;4979409;28;20240;-56
2022/07/11 05:39:56;;;;;;;2.38;1.52;;;;;;;24.10;nan;-24485.59;4979067;28;20205;-55
2022/07/11 05:42:22;;;;;;;3.83;1.58;;;;;;;24.17;nan;-24487.53;4980838;28;20189;-56
2022/07/11 05:44:49;;;;;;;2.58;1.60;;;;;;;23.70;nan;-24474.69;4979151;28;20189;-56
2022/07/11 05:47:14;;;;;;;1.88;1.50;;;;;;;23.46;nan;-24468.22;4979721;28;20174;-57
2022/07/11 05:49:40;;;;;;;2.20;1.48;;;;;;;22.81;nan;-24450.38;4972259;28;20233;-56
2022/07/11 05:52:06;;;;;;;2.78;1.95;;;;;;;23.28;nan;-24463.38;4976698;28;20177;-57
2022/07/11 05:54:31;;;;;;;1.70;1.40;;;;;;;22.97;nan;-24454.81;4980424;28;20181;-56
2022/07/11 05:56:57;;;;;;;1.90;1.70;;;;;;;23.38;nan;-24466.00;4977453;28;20540;-56
2022/07/11 05:59:22;;;;;;;3.70;1.50;;;;;;;22.99;nan;-24455.22;4976616;28;20261;-56
2022/07/11 06:01:48;;;;;;;1.92;1.65;;;;;;;22.82;nan;-24450.81;4978740;28;20674;-58
2022/07/11 06:04:13;;;;;;;1.65;1.55;;;;;;;23.21;nan;-24461.44;4978929;28;20628;-58
2022/07/11 06:06:39;;;;;;;1.60;1.25;;;;;;;22.93;nan;-24453.56;4980088;28;20181;-58
2022/07/11 06:09:05;;;;;;;1.73;1.55;;;;;;;23.10;nan;-24458.41;4979158;28;20181;-57
2022/07/11 06:11:31;;;;;;;1.77;1.67;;;;;;;23.36;nan;-24465.44;4978753;28;20272;-56
2022/07/11 06:13:57;;;;;;;1.63;1.50;;;;;;;23.19;nan;-24460.75;4978424;28;20189;-57
2022/07/11 06:16:22;;;;;;;1.55;1.40;;;;;;;22.93;nan;-24453.56;4981148;28;20201;-56
2022/07/11 06:18:48;;;;;;;5.60;1.77;;;;;;;23.00;nan;-24455.63;4978842;28;20204;-57
2022/07/11 06:21:13;;;;;;;1.45;1.20;;;;;;;23.29;nan;-24463.50;4976214;28;20244;-57
2022/07/11 06:23:40;;;;;;;1.50;1.40;;;;;;;23.06;nan;-24457.16;4974393;28;20633;-56
2022/07/11 06:26:06;;;;;;;2.08;1.50;;;;;;;23.10;nan;-24458.41;4976147;28;20209;-57
2022/07/11 06:28:32;;;;;;;1.40;1.30;;;;;;;23.44;nan;-24467.66;4974440;28;20273;-56
2022/07/11 06:30:57;;;;;;;1.50;1.40;;;;;;;23.31;nan;-24464.19;4977835;28;20667;-58
2022/07/11 06:33:23;;;;;;;1.63;1.40;;;;;;;23.45;nan;-24467.78;4982903;28;20184;-57
2022/07/11 06:35:49;;;;;;;1.38;1.27;;;;;;;23.85;nan;-24478.69;4978310;28;20256;-57
2022/07/11 06:38:15;;;;;;;1.60;1.42;;;;;;;23.45;nan;-24467.94;4978698;28;20351;-56
2022/07/11 06:40:42;;;;;;;3.67;1.50;;;;;;;23.55;nan;-24470.69;4978733;28;20562;-56
2022/07/11 06:43:10;;;;;;;1.60;1.40;;;;;;;23.56;nan;-24470.97;4978767;28;20200;-57
2022/07/11 06:45:37;;;;;;;2.58;1.83;;;;;;;23.77;nan;-24476.63;4977679;28;20575;-56
2022/07/11 06:48:04;;;;;;;1.42;1.33;;;;;;;23.59;nan;-24471.81;4978360;28;20183;-57
2022/07/11 06:50:29;;;;;;;1.95;1.50;;;;;;;23.73;nan;-24475.66;4980287;28;20173;-56
2022/07/11 06:52:55;;;;;;;1.40;1.30;;;;;;;23.68;nan;-24474.28;4978247;28;20243;-57
2022/07/11 06:55:20;;;;;;;1.50;1.40;;;;;;;23.89;nan;-24479.81;4980310;28;20176;-58
2022/07/11 06:57:45;;;;;;;1.65;1.40;;;;;;;23.89;nan;-24479.94;4978376;28;20184;-56
2022/07/11 07:00:11;;;;;;;1.40;1.30;;;;;;;23.96;nan;-24481.72;4978042;28;20252;-57
2022/07/11 07:02:38;;;;;;;1.40;1.20;;;;;;;24.28;nan;-24490.44;4978230;28;20208;-57
2022/07/11 07:05:04;;;;;;;1.90;1.27;;;;;;;24.05;nan;-24484.22;4975601;28;20209;-57
2022/07/11 07:07:30;;;;;;;1.45;1.10;;;;;;;23.99;nan;-24482.56;4977625;28;20185;-56
2022/07/11 07:09:56;;;;;;;1.42;1.33;;;;;;;23.88;nan;-24479.66;4975417;28;20231;-56
2022/07/11 07:12:21;;;;;;;1.50;1.20;;;;;;;24.36;nan;-24492.63;4977611;28;20243;-56
2022/07/11 07:14:48;;;;;;;2.17;1.35;;;;;;;24.09;nan;-24485.31;4979088;28;20174;-57
2022/07/11 07:17:13;;;;;;;1.70;1.40;;;;;;;24.29;nan;-24490.72;4976586;28;20169;-57
2022/07/11 07:19:39;;;;;;;1.73;1.38;;;;;;;24.37;nan;-24492.91;4977177;28;20216;-58
2022/07/11 07:22:08;;;;;;;1.60;1.50;;;;;;;24.22;nan;-24488.91;4975378;28;20248;-57
2022/07/11 07:24:34;;;;;;;1.95;1.50;;;;;;;24.35;nan;-24492.50;4973754;28;20252;-57
2022/07/11 07:27:00;;;;;;;1.30;1.20;;;;;;;24.40;nan;-24493.88;4975949;28;20185;-57
2022/07/11 07:29:26;;;;;;;2.58;1.52;;;;;;;24.18;nan;-24487.81;4976306;28;20187;-56
2022/07/11 07:31:52;;;;;;;2.15;1.50;;;;;;;24.64;nan;-24500.50;4978209;28;20173;-59
2022/07/11 07:34:19;;;;;;;1.45;1.10;;;;;;;24.45;nan;-24495.13;4980595;28;20177;-56
2022/07/11 07:36:44;;;;;;;2.67;1.90;;;;;;;24.59;nan;-24498.97;4977653;28;20233;-57
2022/07/11 07:39:11;;;;;;;1.35;1.23;;;;;;;24.67;nan;-24501.03;4978814;28;20259;-58
2022/07/11 07:41:36;;;;;;;3.17;1.20;;;;;;;24.67;nan;-24501.03;4979740;28;20239;-57
2022/07/11 07:44:02;;;;;;;1.40;1.30;;;;;;;24.69;nan;-24501.72;4977418;28;20221;-57
2022/07/11 07:46:27;;;;;;;1.48;1.20;;;;;;;24.65;nan;-24500.63;4972910;28;20212;-57
2022/07/11 07:48:53;;;;;;;2.70;2.03;;;;;;;24.30;nan;-24491.13;4973397;28;20197;-57
2022/07/11 07:51:18;;;;;;;1.40;1.30;;;;;;;24.49;nan;-24496.22;4981475;28;20276;-57
2022/07/11 07:53:44;;;;;;;1.60;1.27;;;;;;;24.81;nan;-24504.91;5012046;28;20243;-57
2022/07/11 07:56:09;;;;;;;1.38;1.27;;;;;;;24.67;nan;-24501.19;4982338;28;20181;-57
2022/07/11 07:58:35;;;;;;;1.33;1.20;;;;;;;24.81;nan;-24505.03;4983495;28;20582;-57
2022/07/11 08:03:44;;;;;;;2.40;1.33;;;;;;;24.98;nan;-24509.72;4980666;28;20195;-57
2022/07/11 08:06:10;;;;;;;1.38;1.23;;;;;;;25.04;nan;-24511.38;4981093;28;20189;-57
2022/07/11 08:08:36;;;;;;;1.45;1.30;;;;;;;25.02;nan;-24510.81;4978841;28;20192;-57
2022/07/11 08:11:02;;;;;;;1.40;1.20;;;;;;;25.37;nan;-24520.31;4978197;28;20645;-58
2022/07/11 08:13:28;;;;;;;1.33;1.23;;;;;;;24.88;nan;-24506.97;4984041;28;20201;-57
2022/07/11 08:15:55;;;;;;;1.50;1.40;;;;;;;25.28;nan;-24517.84;4981550;28;20247;-58
2022/07/11 08:18:20;;;;;;;1.25;1.15;;;;;;;25.02;nan;-24510.81;4983872;28;20264;-58
2022/07/11 08:20:45;;;;;;;1.40;1.30;;;;;;;25.41;nan;-24521.41;4980195;28;20221;-58
2022/07/11 08:23:12;;;;;;;1.73;1.50;;;;;;;25.59;nan;-24526.25;4983235;28;20181;-57
2022/07/11 08:25:39;;;;;;;1.67;1.48;;;;;;;25.61;nan;-24526.66;4978803;28;20201;-56
2022/07/11 08:28:05;;;;;;;1.52;1.33;;;;;;;25.30;nan;-24518.25;4980588;28;20189;-57
2022/07/11 08:30:30;;;;;;;1.67;1.33;;;;;;;24.47;nan;-24495.81;4981506;28;20272;-57
2022/07/11 08:32:56;;;;;;;1.65;1.30;;;;;;;25.37;nan;-24520.31;4978496;28;20579;-58
2022/07/11 08:35:21;;;;;;;1.85;1.45;;;;;;;25.34;nan;-24519.34;4980585;28;20295;-57
2022/07/11 08:37:47;;;;;;;1.45;1.35;;;;;;;25.57;nan;-24525.56;4980831;28;20563;-56
2022/07/11 08:40:12;;;;;;;1.85;1.40;;;;;;;25.51;nan;-24524.03;4982484;28;20211;-58
2022/07/11 08:42:45;;;;;;;1.80;1.52;;;;;;;24.60;nan;-24499.25;4980194;28;20280;-58
2022/07/11 08:45:15;;;;;;;1.50;1.40;;;;;;;25.89;nan;-24534.50;4983478;28;20268;-57
2022/07/11 08:47:41;;;;;;;2.90;1.55;;;;;;;25.90;nan;-24534.75;4979956;28;20571;-58
2022/07/11 08:50:08;;;;;;;3.05;1.42;;;;;;;26.35;nan;-24547.00;4977649;28;20248;-57
2022/07/11 08:52:34;;;;;;;1.70;1.48;;;;;;;26.31;nan;-24545.75;4980382;28;20181;-60
2022/07/11 08:55:00;;;;;;;1.60;1.50;;;;;;;26.46;nan;-24549.75;4981058;28;20226;-56
2022/07/11 08:57:26;;;;;;;1.63;1.40;;;;;;;26.56;nan;-24552.47;4981643;28;20181;-58
2022/07/11 08:59:55;;;;;;;1.35;1.25;;;;;;;26.30;nan;-24545.63;4980034;28;20221;-57
2022/07/11 09:02:22;;;;;;;1.50;1.35;;;;;;;26.15;nan;-24541.34;4981220;28;20185;-57
2022/07/11 09:04:47;;;;;;;1.38;1.25;;;;;;;26.26;nan;-24544.53;4979472;28;20181;-57
2022/07/11 09:07:13;;;;;;;1.50;1.40;;;;;;;26.34;nan;-24546.72;4979538;28;20188;-57
2022/07/11 09:09:39;;;;;;;1.38;1.27;;;;;;;26.40;nan;-24548.09;4978454;28;20181;-56
2022/07/11 09:12:12;;;;;;;1.25;1.15;;;;;;;26.61;nan;-24553.84;4977548;28;20301;-56
2022/07/11 09:14:38;;;;;;;1.60;1.38;;;;;;;26.33;nan;-24546.44;4979652;28;20233;-57
2022/07/11 09:17:05;;;;;;;1.50;1.40;;;;;;;26.56;nan;-24552.63;4977023;28;20192;-59
2022/07/11 09:19:33;;;;;;;1.40;1.30;;;;;;;26.26;nan;-24544.38;4979029;28;20248;-56
2022/07/11 09:28:04;;;;;;;1.50;1.40;;;;;;;26.42;nan;-24548.78;4977958;28;20181;-57
2022/07/11 09:30:42;;;;;;;1.25;1.00;;;;;;;26.71;nan;-24556.59;4980118;28;20369;-57
2022/07/11 09:33:11;;;;;;;1.63;1.42;;;;;;;26.41;nan;-24548.50;4980438;28;20187;-58
2022/07/11 09:35:41;;;;;;;2.50;1.50;;;;;;;26.30;nan;-24545.47;4977327;28;20231;-58
2022/07/11 09:38:12;;;;;;;1.38;1.27;;;;;;;26.40;nan;-24548.09;4979536;28;20174;-58
2022/07/11 09:40:43;;;;;;;2.08;1.50;;;;;;;26.55;nan;-24552.22;4976718;28;20617;-57
2022/07/11 09:43:08;;;;;;;2.17;1.40;;;;;;;26.47;nan;-24550.00;4981410;28;20279;-57
2022/07/11 09:45:35;;;;;;;1.88;1.52;;;;;;;26.63;nan;-24554.53;4977970;28;20218;-57
2022/07/11 09:48:08;;;;;;;1.30;1.20;;;;;;;26.81;nan;-24559.34;4979913;28;20331;-58
2022/07/11 09:50:33;;;;;;;1.65;1.27;;;;;;;26.54;nan;-24552.06;4974792;28;20224;-57
2022/07/11 09:53:07;;;;;;;1.95;1.50;;;;;;;26.86;nan;-24560.59;4976483;28;20286;-59
2022/07/11 09:55:37;;;;;;;4.68;1.58;;;;;;;26.76;nan;-24558.13;4976531;28;20185;-58
2022/07/11 09:58:06;;;;;;;1.48;1.27;;;;;;;26.63;nan;-24554.53;4976867;28;20284;-58
2022/07/11 10:00:33;;;;;;;1.83;1.30;;;;;;;26.53;nan;-24551.66;4980617;28;20192;-57
2022/07/11 10:03:00;;;;;;;1.52;1.30;;;;;;;26.57;nan;-24552.75;4976846;28;20615;-57
2022/07/11 10:05:26;;;;;;;1.23;1.13;;;;;;;26.63;nan;-24554.41;4978775;28;20676;-57
2022/07/11 10:07:52;;;;;;;1.65;1.50;;;;;;;26.58;nan;-24553.03;4973830;28;20590;-57
2022/07/11 10:10:18;;;;;;;2.20;1.58;;;;;;;26.70;nan;-24556.31;4981054;28;20189;-57
2022/07/11 10:12:46;;;;;;;1.20;1.10;;;;;;;26.67;nan;-24555.50;4978855;28;20193;-56
2022/07/11 10:15:15;;;;;;;1.73;1.20;;;;;;;26.78;nan;-24558.66;4976045;28;20188;-58
2022/07/11 10:18:02;;;;;;;1.60;1.25;;;;;;;27.09;nan;-24567.03;4974570;28;20181;-57
2022/07/11 10:20:35;;;;;;;1.23;1.02;;;;;;;26.76;nan;-24557.97;4973794;28;20667;-56
2022/07/11 10:23:06;;;;;;;1.35;1.17;;;;;;;26.74;nan;-24557.56;4976083;28;20538;-56
2022/07/11 10:25:47;;;;;;;1.25;1.15;;;;;;;26.73;nan;-24557.16;4974590;28;20232;-57
2022/07/11 10:28:27;;;;;;;1.77;1.20;;;;;;;26.92;nan;-24562.22;4977610;28;20197;-58
2022/07/11 10:30:59;;;;;;;1.35;1.20;;;;;;;27.06;nan;-24566.06;4975994;28;20362;-56
2022/07/11 10:33:27;;;;;;;1.30;1.20;;;;;;;27.01;nan;-24564.84;4980054;28;20173;-57
2022/07/11 10:35:53;;;;;;;1.67;1.50;;;;;;;27.22;nan;-24570.47;4978151;28;20229;-56
2022/07/11 10:38:20;;;;;;;1.38;1.20;;;;;;;27.29;nan;-24572.25;4980262;28;20258;-56
2022/07/11 10:40:45;;;;;;;1.30;1.20;;;;;;;27.42;nan;-24575.81;4978192;28;20269;-57
2022/07/11 10:43:33;;;;;;;1.63;1.40;;;;;;;27.30;nan;-24572.50;4981160;28;20643;-59
2022/07/11 10:46:03;;;;;;;1.52;1.40;;;;;;;27.14;nan;-24568.28;4982579;28;20220;-57
2022/07/11 10:48:31;;;;;;;1.60;1.50;;;;;;;27.23;nan;-24570.75;4979012;28;20192;-58
2022/07/11 10:51:28;;;;;;;2.50;1.55;;;;;;;27.51;nan;-24578.28;4980000;28;20254;-57
2022/07/11 10:54:04;;;;;;;1.42;1.20;;;;;;;27.35;nan;-24573.88;4985750;28;20664;-57
2022/07/11 10:57:03;;;;;;;1.27;1.17;;;;;;;27.46;nan;-24576.91;4981126;28;20567;-57
2022/07/11 10:59:29;;;;;;;1.50;1.40;;;;;;;27.22;nan;-24570.59;4979392;28;20213;-56
2022/07/11 11:02:07;;;;;;;1.50;1.30;;;;;;;26.99;nan;-24564.28;4979851;28;20192;-57
2022/07/11 11:04:50;;;;;;;1.35;1.25;;;;;;;27.23;nan;-24570.88;4979673;28;20192;-57
2022/07/11 11:07:40;;;;;;;1.55;1.30;;;;;;;27.58;nan;-24580.19;4980035;28;20183;-57
2022/07/11 11:10:18;;;;;;;2.50;1.58;;;;;;;27.76;nan;-24585.13;4981997;28;20181;-57
2022/07/11 11:13:05;;;;;;;1.58;1.35;;;;;;;27.61;nan;-24581.00;4979933;28;20724;-58
2022/07/11 11:15:32;;;;;;;1.45;1.35;;;;;;;25.05;nan;-24511.50;4978315;28;20235;-58
2022/07/11 11:18:18;;;;;;;1.30;1.20;;;;;;;27.25;nan;-24571.28;4978313;28;20308;-58
2022/07/11 11:20:43;;;;;;;1.83;1.38;;;;;;;27.41;nan;-24575.53;4979131;28;20193;-58
2022/07/11 11:23:10;;;;;;;1.23;1.10;;;;;;;27.10;nan;-24567.16;4978649;28;20192;-56
2022/07/11 11:25:36;;;;;;;1.50;1.40;;;;;;;26.82;nan;-24559.75;4978875;28;20180;-57
2022/07/11 11:28:03;;;;;;;1.45;1.30;;;;;;;27.25;nan;-24571.41;4977882;28;20228;-57
2022/07/11 11:30:29;;;;;;;3.03;1.40;;;;;;;27.22;nan;-24570.59;4979850;28;20183;-58
2022/07/11 11:32:55;;;;;;;1.45;1.30;;;;;;;27.47;nan;-24577.31;4977570;28;20177;-57
2022/07/11 11:35:20;;;;;;;1.40;1.20;;;;;;;27.70;nan;-24583.34;4979839;28;20176;-59
2022/07/11 11:37:47;;;;;;;4.45;1.52;;;;;;;27.53;nan;-24578.97;4977834;28;20189;-58
2022/07/11 11:40:12;;;;;;;1.30;1.20;;;;;;;27.35;nan;-24573.88;4978189;28;20218;-58
2022/07/11 11:42:39;;;;;;;1.45;1.15;;;;;;;27.01;nan;-24564.84;4979306;28;20185;-57
2022/07/11 11:45:07;;;;;;;1.42;1.27;;;;;;;27.41;nan;-24575.53;4975477;28;20184;-56
2022/07/11 11:47:35;;;;;;;1.60;1.25;;;;;;;27.64;nan;-24581.84;4979811;28;20636;-57
2022/07/11 11:50:01;;;;;;;1.98;1.20;;;;;;;27.05;nan;-24565.81;4975635;28;20181;-57